Time;durP1;ratioP1;P1;durP2;ratioP2;P2;SDS_P1;SDS_P2;PMS_P1;PMS_P2;Temp;Humidity;BMP_temperature;BMP_pressure;BME280_temperature;BME280_humidity;BME280_pressure;Samples;Min_cycle;Max_cycle;Signal;HPM_P1;HPM_P2
2023/06/10 00:00:41;;;;;;;11.45;8.85;;;;;;;20.28;60.31;101231.59;5092996;28;20028;-44
2023/06/10 00:03:07;;;;;;;11.52;8.30;;;;;;;20.20;61.17;101239.47;5093572;28;20491;-47
2023/06/10 00:05:34;;;;;;;11.38;7.97;;;;;;;20.16;61.40;101236.88;5093219;28;20425;-46
2023/06/10 00:08:01;;;;;;;12.88;8.52;;;;;;;20.16;60.81;101239.50;5092979;28;20025;-46
2023/06/10 00:10:26;;;;;;;9.75;8.02;;;;;;;20.07;62.16;101241.25;5093275;28;20020;-43
2023/06/10 00:12:52;;;;;;;10.52;7.93;;;;;;;20.02;61.72;101240.41;5093211;28;20024;-45
2023/06/10 00:15:17;;;;;;;11.65;8.32;;;;;;;20.02;61.69;101239.53;5093176;28;20490;-46
2023/06/10 00:17:43;;;;;;;13.15;8.40;;;;;;;19.94;62.34;101239.56;5093255;28;20028;-44
2023/06/10 00:20:11;;;;;;;11.57;9.18;;;;;;;19.95;61.57;101236.09;5092793;28;20040;-46
2023/06/10 00:22:37;;;;;;;12.52;8.70;;;;;;;19.86;62.21;101241.34;5092885;28;20028;-46
2023/06/10 00:25:04;;;;;;;12.52;8.60;;;;;;;19.76;62.92;101250.06;5093470;28;20069;-43
2023/06/10 00:27:34;;;;;;;12.55;9.40;;;;;;;19.71;63.12;101240.44;5092610;28;20053;-44
2023/06/10 00:30:04;;;;;;;11.40;8.57;;;;;;;19.60;63.55;101237.00;5093252;28;20467;-44
2023/06/10 00:32:30;;;;;;;10.35;8.55;;;;;;;19.55;63.76;101238.75;5092919;28;20499;-43
2023/06/10 00:34:55;;;;;;;12.48;9.02;;;;;;;19.52;64.38;101242.25;5092767;28;20028;-43
2023/06/10 00:37:21;;;;;;;11.85;8.90;;;;;;;19.39;65.21;101241.41;5092619;28;20077;-44
2023/06/10 00:39:46;;;;;;;11.38;8.45;;;;;;;19.31;64.96;101245.72;5093376;28;20515;-44
2023/06/10 00:42:11;;;;;;;10.70;8.35;;;;;;;19.31;65.85;101240.50;5092742;28;20024;-44
2023/06/10 00:44:37;;;;;;;10.90;8.20;;;;;;;19.32;66.52;101246.63;5092601;28;20020;-46
2023/06/10 00:47:03;;;;;;;11.32;8.38;;;;;;;19.19;66.53;101241.38;5093148;28;20016;-47
2023/06/10 00:49:28;;;;;;;11.73;9.00;;;;;;;19.06;67.16;101248.34;5092155;28;20081;-44
2023/06/10 00:51:54;;;;;;;10.23;8.27;;;;;;;18.91;68.09;101249.22;5092592;28;20036;-43
2023/06/10 00:54:20;;;;;;;12.50;8.88;;;;;;;18.87;68.10;101255.25;5092873;28;20036;-44
2023/06/10 00:56:46;;;;;;;13.05;9.57;;;;;;;18.70;69.53;101252.59;5092399;28;20021;-45
2023/06/10 00:59:14;;;;;;;11.27;10.07;;;;;;;18.65;69.66;101254.34;5092784;28;20058;-48
2023/06/10 01:01:39;;;;;;;13.40;10.38;;;;;;;18.42;71.96;101246.44;5092777;28;20023;-44
2023/06/10 01:04:05;;;;;;;11.98;9.95;;;;;;;18.29;72.15;101248.13;5092347;28;20384;-44
2023/06/10 01:06:47;;;;;;;12.95;9.88;;;;;;;18.23;72.24;101250.69;5092583;28;20348;-47
2023/06/10 01:09:24;;;;;;;11.65;10.20;;;;;;;18.13;72.98;101251.53;5096794;28;20056;-44
2023/06/10 01:12:01;;;;;;;11.93;10.25;;;;;;;18.01;73.05;101250.63;5096858;28;20031;-43
2023/06/10 01:14:27;;;;;;;;;;;;;;;18.17;69.15;101250.69;5097090;28;20020;-43
2023/06/10 01:16:53;;;;;;;13.40;10.35;;;;;;;17.85;74.29;101247.00;5096401;28;19964;-44
2023/06/10 01:19:18;;;;;;;13.50;10.95;;;;;;;17.80;74.30;101255.66;5096592;28;20395;-47
2023/06/10 01:21:48;;;;;;;15.82;11.45;;;;;;;17.71;75.14;101259.94;5096729;28;20399;-46
2023/06/10 01:24:14;;;;;;;14.82;11.40;;;;;;;17.59;75.51;101257.28;5096163;28;20050;-46
2023/06/10 01:26:42;;;;;;;14.55;11.48;;;;;;;17.61;75.84;101261.63;5096114;28;20464;-47
2023/06/10 01:29:14;;;;;;;13.27;11.15;;;;;;;17.53;76.30;101257.22;5096695;28;20027;-43
2023/06/10 01:32:01;;;;;;;13.55;11.20;;;;;;;17.62;74.96;101262.50;5096070;28;20036;-43
2023/06/10 01:34:26;;;;;;;14.25;11.50;;;;;;;17.61;74.86;101260.75;5096153;28;20020;-46
2023/06/10 01:36:54;;;;;;;15.30;11.18;;;;;;;17.54;76.33;101264.19;5096724;28;20490;-44
2023/06/10 01:39:23;;;;;;;14.45;11.13;;;;;;;17.57;75.23;101259.88;5095600;28;20038;-43
2023/06/10 01:41:49;;;;;;;13.27;10.93;;;;;;;17.63;75.52;101255.56;5096101;28;20048;-45
2023/06/10 01:44:19;;;;;;;15.82;12.25;;;;;;;17.55;76.16;101255.50;5096184;28;20384;-45
2023/06/10 01:46:44;;;;;;;13.05;11.10;;;;;;;17.53;76.67;101254.63;5096584;28;20024;-46
2023/06/10 01:49:10;;;;;;;14.77;11.82;;;;;;;17.48;77.40;101261.53;5096175;28;20024;-47
2023/06/10 01:51:36;;;;;;;12.85;11.32;;;;;;;17.36;77.72;101263.16;5095467;28;20073;-48
2023/06/10 01:54:01;;;;;;;14.05;12.00;;;;;;;17.37;78.61;101262.31;5096080;28;20032;-44
2023/06/10 01:56:26;;;;;;;15.23;11.75;;;;;;;17.33;77.91;101260.53;5095700;28;20398;-47
2023/06/10 01:58:54;;;;;;;14.27;11.35;;;;;;;17.27;78.67;101265.69;5095822;28;20028;-46
2023/06/10 02:01:20;;;;;;;16.52;11.15;;;;;;;17.27;78.88;101263.97;5095706;28;20032;-46
2023/06/10 02:03:45;;;;;;;14.50;12.38;;;;;;;17.32;78.85;101266.59;5095894;28;20119;-44
2023/06/10 02:06:10;;;;;;;13.20;11.70;;;;;;;17.29;79.73;101264.00;5095538;28;20024;-46
2023/06/10 02:08:35;;;;;;;15.18;10.93;;;;;;;17.27;78.94;101265.69;5095458;28;20034;-48
2023/06/10 02:11:01;;;;;;;15.07;11.68;;;;;;;17.27;79.53;101266.59;5095767;28;20016;-48
2023/06/10 02:13:26;;;;;;;15.50;12.20;;;;;;;17.39;78.66;101265.81;5095198;28;20032;-46
2023/06/10 02:15:53;;;;;;;14.13;11.68;;;;;;;17.34;79.16;101267.50;5095573;28;20111;-48
2023/06/10 02:18:20;;;;;;;17.00;12.40;;;;;;;17.37;79.03;101270.13;5095291;28;20024;-44
2023/06/10 02:20:46;;;;;;;15.27;12.57;;;;;;;17.39;78.95;101264.91;5095142;28;20044;-47
2023/06/10 02:23:11;;;;;;;16.15;11.52;;;;;;;17.45;78.67;101270.19;5095333;28;20534;-45
2023/06/10 02:25:36;;;;;;;13.80;11.93;;;;;;;17.42;79.64;101268.44;5095271;28;20472;-44
2023/06/10 02:28:03;;;;;;;16.88;12.85;;;;;;;17.44;79.28;101273.66;5095146;28;20107;-50
2023/06/10 02:30:28;;;;;;;15.43;12.55;;;;;;;17.48;79.83;101265.03;5095149;28;20016;-47
2023/06/10 02:32:56;;;;;;;14.27;12.07;;;;;;;17.41;79.69;101277.09;5095614;28;20077;-48
2023/06/10 02:35:22;;;;;;;16.23;12.68;;;;;;;17.48;79.09;101274.56;5094639;28;20020;-43
2023/06/10 02:37:47;;;;;;;13.95;12.40;;;;;;;17.43;79.48;101272.78;5095301;28;20035;-46
2023/06/10 02:40:13;;;;;;;16.25;13.20;;;;;;;17.44;79.31;101271.03;5095267;28;20029;-43
2023/06/10 02:42:38;;;;;;;17.58;13.20;;;;;;;17.42;79.65;101278.00;5094483;28;20024;-46
2023/06/10 02:45:04;;;;;;;15.55;12.23;;;;;;;17.38;79.94;101277.09;5094946;28;20035;-47
2023/06/10 02:47:30;;;;;;;17.52;13.50;;;;;;;17.34;80.49;101272.72;5094943;28;20027;-44
2023/06/10 02:49:55;;;;;;;14.27;12.85;;;;;;;17.36;80.11;101268.38;5094705;28;20016;-44
2023/06/10 02:52:20;;;;;;;15.23;12.85;;;;;;;17.32;80.62;101273.56;5094615;28;20084;-46
2023/06/10 02:54:46;;;;;;;18.33;14.07;;;;;;;17.32;81.18;101274.44;5094478;28;20051;-44
2023/06/10 02:57:11;;;;;;;16.30;14.07;;;;;;;17.25;80.83;101276.13;5094951;28;20020;-47
2023/06/10 02:59:36;;;;;;;15.85;12.75;;;;;;;17.15;81.36;101276.88;5094824;28;20016;-45
2023/06/10 03:02:02;;;;;;;15.95;14.18;;;;;;;17.14;81.78;101271.66;5094549;28;20104;-48
2023/06/10 03:04:28;;;;;;;18.48;14.38;;;;;;;17.09;82.00;101276.81;5094410;28;20379;-44
2023/06/10 03:06:54;;;;;;;18.45;14.38;;;;;;;17.18;82.17;101278.66;5094786;28;20107;-44
2023/06/10 03:09:20;;;;;;;15.93;14.20;;;;;;;17.01;82.86;101274.16;5093874;28;20026;-46
2023/06/10 03:11:45;;;;;;;16.55;14.48;;;;;;;16.95;83.55;101284.50;5094678;28;20031;-44
2023/06/10 03:14:10;;;;;;;15.10;13.57;;;;;;;16.90;83.96;101278.31;5094780;28;20433;-46
2023/06/10 03:16:40;;;;;;;16.63;13.48;;;;;;;16.85;84.13;101282.63;5093791;28;20028;-45
2023/06/10 03:19:06;;;;;;;18.45;14.52;;;;;;;16.82;84.77;101280.84;5094306;28;20460;-45
2023/06/10 03:21:31;;;;;;;16.70;13.70;;;;;;;16.79;84.77;101276.50;5093946;28;20040;-49
2023/06/10 03:23:56;;;;;;;15.95;13.65;;;;;;;16.77;84.57;101288.63;5093785;28;20032;-47
2023/06/10 03:26:22;;;;;;;15.43;13.68;;;;;;;16.74;84.68;101285.97;5094090;28;20028;-49
2023/06/10 03:28:47;;;;;;;18.65;14.70;;;;;;;16.81;84.88;101288.66;5094386;28;20016;-47
2023/06/10 03:31:13;;;;;;;18.95;14.70;;;;;;;16.69;85.67;101287.66;5093271;28;20095;-48
2023/06/10 03:33:38;;;;;;;16.48;14.52;;;;;;;16.62;85.77;101289.31;5093770;28;20028;-49
2023/06/10 03:36:04;;;;;;;18.52;13.93;;;;;;;16.67;85.53;101297.19;5094305;28;20426;-47
2023/06/10 03:38:30;;;;;;;15.57;14.05;;;;;;;16.64;85.82;101299.75;5093297;28;20108;-46
2023/06/10 03:40:55;;;;;;;17.60;13.95;;;;;;;16.62;86.04;101294.53;5094061;28;20464;-48
2023/06/10 03:43:21;;;;;;;16.20;14.30;;;;;;;16.61;85.98;101299.72;5093646;28;20074;-48
2023/06/10 03:45:48;;;;;;;17.15;14.45;;;;;;;16.58;86.41;101303.16;5093676;28;20499;-49
2023/06/10 03:48:13;;;;;;;17.15;14.23;;;;;;;16.56;86.68;101302.25;5093795;28;20498;-46
2023/06/10 03:50:38;;;;;;;18.92;14.30;;;;;;;16.57;86.49;101300.53;5093695;28;20055;-48
2023/06/10 03:53:04;;;;;;;18.20;13.82;;;;;;;16.53;86.43;101296.16;5093199;28;20027;-48
2023/06/10 03:55:29;;;;;;;15.52;13.77;;;;;;;16.55;86.85;101300.53;5093292;28;20038;-48
2023/06/10 03:57:54;;;;;;;16.35;14.05;;;;;;;16.56;86.28;101301.38;5093919;28;20055;-49
2023/06/10 04:00:21;;;;;;;15.75;12.88;;;;;;;16.57;86.11;101303.13;5092743;28;20023;-48
2023/06/10 04:02:49;;;;;;;17.10;12.40;;;;;;;16.65;85.70;101300.63;5094066;28;20055;-48
2023/06/10 04:05:16;;;;;;;15.63;13.35;;;;;;;16.61;86.38;101307.53;5093328;28;20028;-49
2023/06/10 04:07:45;;;;;;;16.58;13.00;;;;;;;16.70;85.72;101305.03;5093367;28;20360;-48
2023/06/10 04:10:11;;;;;;;14.05;12.48;;;;;;;16.68;85.18;101311.97;5093830;28;20024;-48
2023/06/10 04:12:37;;;;;;;16.05;12.32;;;;;;;16.68;85.53;101301.53;5092699;28;20077;-48
2023/06/10 04:15:04;;;;;;;17.42;13.68;;;;;;;16.66;85.87;101307.59;5093218;28;20471;-49
2023/06/10 04:17:30;;;;;;;17.35;13.55;;;;;;;16.69;85.66;101303.28;5093031;28;20166;-48
2023/06/10 04:19:55;;;;;;;16.08;12.73;;;;;;;16.72;85.30;101302.44;5092673;28;20027;-47
2023/06/10 04:22:21;;;;;;;15.40;12.98;;;;;;;16.79;83.89;101306.88;5092688;28;20016;-47
2023/06/10 04:24:46;;;;;;;15.68;11.95;;;;;;;16.79;84.50;101315.53;5093541;28;20028;-50
2023/06/10 04:27:12;;;;;;;14.73;12.23;;;;;;;16.86;83.71;101318.22;5092595;28;20369;-48
2023/06/10 04:29:37;;;;;;;14.10;12.25;;;;;;;16.88;83.61;101313.91;5092980;28;20106;-47
2023/06/10 04:32:03;;;;;;;14.65;12.65;;;;;;;16.88;84.13;101321.72;5093183;28;20028;-47
2023/06/10 04:34:28;;;;;;;16.30;12.15;;;;;;;16.94;83.60;101325.28;5092531;28;20118;-49
2023/06/10 04:36:54;;;;;;;14.82;11.98;;;;;;;16.99;82.85;101327.97;5092851;28;20115;-49
2023/06/10 04:39:19;;;;;;;17.98;12.63;;;;;;;17.01;83.16;101331.44;5092857;28;20031;-48
2023/06/10 04:41:45;;;;;;;15.38;11.68;;;;;;;17.06;82.39;101334.97;5091816;28;20528;-48
2023/06/10 04:44:11;;;;;;;15.80;12.52;;;;;;;17.10;82.19;101331.53;5093019;28;20032;-47
2023/06/10 04:46:36;;;;;;;14.90;11.90;;;;;;;17.15;82.25;101333.31;5092820;28;20103;-49
2023/06/10 04:49:01;;;;;;;15.25;12.88;;;;;;;17.19;81.86;101329.88;5092596;28;20077;-46
2023/06/10 04:51:28;;;;;;;14.23;11.55;;;;;;;17.26;81.10;101331.69;5092303;28;20472;-48
2023/06/10 04:53:53;;;;;;;13.52;12.13;;;;;;;17.29;81.73;101329.13;5092953;28;20024;-48
2023/06/10 04:56:19;;;;;;;14.40;11.88;;;;;;;17.40;81.14;101334.41;5092070;28;20021;-45
2023/06/10 04:58:44;;;;;;;15.43;11.45;;;;;;;17.42;80.68;101323.16;5093057;28;20085;-48
2023/06/10 05:01:09;;;;;;;18.55;11.38;;;;;;;17.49;80.35;101331.03;5093015;28;20468;-48
2023/06/10 05:03:35;;;;;;;16.70;11.63;;;;;;;17.53;81.26;101341.50;5091720;28;20038;-48
2023/06/10 05:06:00;;;;;;;15.13;10.88;;;;;;;17.59;79.73;101330.25;5092704;28;20020;-48
2023/06/10 05:08:25;;;;;;;13.32;10.85;;;;;;;17.67;79.18;101319.88;5092260;28;20024;-47
2023/06/10 05:10:50;;;;;;;15.02;10.93;;;;;;;17.71;78.88;101335.53;5092671;28;20482;-45
2023/06/10 05:13:16;;;;;;;14.02;10.85;;;;;;;17.77;78.70;101340.81;5092578;28;20085;-46
2023/06/10 05:15:44;;;;;;;14.90;11.00;;;;;;;17.85;79.53;101332.19;5092292;28;20063;-48
2023/06/10 05:18:09;;;;;;;14.52;10.63;;;;;;;17.86;78.17;101333.94;5092515;28;20024;-45
2023/06/10 05:20:35;;;;;;;16.55;11.05;;;;;;;17.95;77.70;101334.03;5092192;28;20056;-46
2023/06/10 05:23:00;;;;;;;14.88;11.77;;;;;;;18.01;77.02;101334.06;5091989;28;20020;-47
2023/06/10 05:25:27;;;;;;;17.85;11.48;;;;;;;18.09;76.92;101337.59;5092352;28;20032;-49
2023/06/10 05:27:53;;;;;;;17.13;12.07;;;;;;;18.14;76.25;101334.13;5092643;28;20384;-48
2023/06/10 05:30:18;;;;;;;14.85;10.88;;;;;;;18.23;76.43;101339.41;5091774;28;20475;-48
2023/06/10 05:32:44;;;;;;;14.45;11.48;;;;;;;18.27;77.10;101335.97;5092490;28;20028;-49
2023/06/10 05:35:09;;;;;;;16.88;11.43;;;;;;;18.33;76.18;101333.38;5092517;28;20364;-48
2023/06/10 05:37:36;;;;;;;12.93;10.90;;;;;;;18.40;76.93;101329.94;5091967;28;20039;-45
2023/06/10 05:40:03;;;;;;;15.18;11.07;;;;;;;18.45;75.57;101329.97;5092572;28;20054;-46
2023/06/10 05:42:29;;;;;;;15.00;11.48;;;;;;;18.53;76.07;101335.22;5092187;28;20020;-48
2023/06/10 05:44:54;;;;;;;14.73;10.82;;;;;;;18.59;76.80;101335.22;5092017;28;20093;-48
2023/06/10 05:47:19;;;;;;;14.43;10.80;;;;;;;18.66;75.44;101339.63;5091987;28;20387;-45
2023/06/10 05:49:47;;;;;;;15.82;11.15;;;;;;;18.70;74.71;101336.16;5092324;28;20016;-49
2023/06/10 05:52:13;;;;;;;13.75;10.90;;;;;;;18.75;74.53;101331.81;5092111;28;20020;-47
2023/06/10 05:54:38;;;;;;;18.08;11.75;;;;;;;18.84;75.32;101338.81;5095682;28;20020;-49
2023/06/10 05:57:04;;;;;;;13.38;10.73;;;;;;;18.91;73.63;101339.75;5096141;28;20391;-48
2023/06/10 05:59:29;;;;;;;14.18;10.52;;;;;;;18.99;74.94;101347.59;5095050;28;20153;-48
2023/06/10 06:01:54;;;;;;;15.10;10.63;;;;;;;19.07;74.36;101341.53;5096145;28;20024;-49
2023/06/10 06:04:19;;;;;;;16.75;10.32;;;;;;;19.11;72.64;101341.53;5095560;28;20088;-50
2023/06/10 06:06:45;;;;;;;17.05;11.13;;;;;;;19.20;72.72;101346.78;5095376;28;20460;-49
2023/06/10 06:09:10;;;;;;;13.65;11.60;;;;;;;19.24;73.16;101338.94;5096138;28;20059;-48
2023/06/10 06:11:36;;;;;;;17.25;11.07;;;;;;;19.34;72.80;101344.16;5095085;28;20020;-44
2023/06/10 06:14:01;;;;;;;14.88;11.00;;;;;;;19.41;71.23;101341.56;5095747;28;20103;-48
2023/06/10 06:16:26;;;;;;;14.63;11.00;;;;;;;19.48;71.35;101341.56;5095478;28;20035;-46
2023/06/10 06:18:51;;;;;;;13.68;10.23;;;;;;;19.54;71.90;101336.34;5095026;28;20475;-47
2023/06/10 06:21:17;;;;;;;13.88;10.77;;;;;;;19.65;72.11;101350.31;5094928;28;20047;-48
2023/06/10 06:23:42;;;;;;;17.88;11.10;;;;;;;19.70;70.09;101338.09;5095686;28;20077;-43
2023/06/10 06:26:07;;;;;;;17.95;10.32;;;;;;;19.79;70.31;101341.56;5095192;28;20077;-47
2023/06/10 06:28:33;;;;;;;15.45;11.00;;;;;;;19.84;70.63;101350.31;5095089;28;20103;-48
2023/06/10 06:30:58;;;;;;;16.92;10.82;;;;;;;19.94;70.77;101341.59;5095595;28;20450;-48
2023/06/10 06:33:23;;;;;;;14.57;10.38;;;;;;;20.03;69.84;101345.94;5094601;28;20024;-47
2023/06/10 06:35:48;;;;;;;14.82;11.07;;;;;;;20.07;68.38;101345.91;5095353;28;20024;-48
2023/06/10 06:38:14;;;;;;;14.35;9.45;;;;;;;20.14;68.51;101354.66;5095588;28;20020;-43
2023/06/10 06:40:39;;;;;;;14.98;9.70;;;;;;;20.26;69.62;101347.63;5094593;28;20054;-47
2023/06/10 06:43:04;;;;;;;15.30;10.38;;;;;;;20.31;67.87;101351.09;5095091;28;20036;-50
2023/06/10 06:45:30;;;;;;;15.27;10.07;;;;;;;20.39;67.53;101347.59;5094915;28;20498;-49
2023/06/10 06:47:56;;;;;;;15.60;9.80;;;;;;;20.47;65.52;101357.19;5094595;28;20024;-48
2023/06/10 06:50:21;;;;;;;13.90;9.77;;;;;;;20.54;65.73;101353.66;5094436;28;20031;-49
2023/06/10 06:52:46;;;;;;;13.10;9.60;;;;;;;20.57;64.51;101356.28;5095323;28;20024;-45
2023/06/10 06:55:11;;;;;;;14.55;9.68;;;;;;;20.71;66.40;101357.13;5094495;28;20395;-48
2023/06/10 06:57:37;;;;;;;17.33;10.48;;;;;;;20.81;63.82;101357.06;5094585;28;20106;-49
2023/06/10 07:00:03;;;;;;;13.77;10.05;;;;;;;20.88;62.88;101354.41;5095044;28;20024;-43
2023/06/10 07:02:28;;;;;;;14.07;9.88;;;;;;;21.04;61.94;101360.47;5093901;28;20032;-49
2023/06/10 07:04:55;;;;;;;14.73;9.82;;;;;;;21.17;61.74;101365.59;5093736;28;20031;-49
2023/06/10 07:07:21;;;;;;;13.05;9.40;;;;;;;21.26;61.80;101368.16;5094594;28;20028;-48
2023/06/10 07:09:46;;;;;;;12.77;8.98;;;;;;;21.34;60.51;101361.13;5093991;28;20028;-49
2023/06/10 07:12:11;;;;;;;11.70;9.25;;;;;;;21.47;60.91;101367.16;5094755;28;20508;-48
2023/06/10 07:14:37;;;;;;;13.10;9.02;;;;;;;21.57;61.44;101369.75;5094357;28;20031;-49
2023/06/10 07:17:02;;;;;;;12.93;8.98;;;;;;;21.68;61.43;101371.38;5093964;28;20134;-49
2023/06/10 07:19:27;;;;;;;12.80;9.23;;;;;;;21.80;59.10;101366.94;5094296;28;20034;-50
2023/06/10 07:21:53;;;;;;;12.98;9.20;;;;;;;21.85;58.78;101373.00;5094405;28;20400;-47
2023/06/10 07:24:19;;;;;;;14.38;8.95;;;;;;;21.94;58.25;101370.28;5093422;28;20529;-50
2023/06/10 07:26:45;;;;;;;12.48;8.38;;;;;;;22.03;57.59;101374.59;5094449;28;20486;-47
2023/06/10 07:29:10;;;;;;;10.25;7.97;;;;;;;22.19;57.79;101376.19;5093736;28;20024;-46
2023/06/10 07:31:35;;;;;;;11.45;8.43;;;;;;;22.29;56.16;101387.44;5093730;28;20015;-50
2023/06/10 07:34:01;;;;;;;11.60;8.63;;;;;;;22.36;57.22;101376.03;5094145;28;20028;-49
2023/06/10 07:36:28;;;;;;;10.32;8.43;;;;;;;22.45;55.00;101377.69;5093643;28;20028;-48
2023/06/10 07:38:54;;;;;;;13.43;7.80;;;;;;;22.56;56.43;101376.69;5093977;28;20424;-49
2023/06/10 07:41:20;;;;;;;11.47;7.73;;;;;;;22.67;55.32;101377.41;5094015;28;20020;-47
2023/06/10 07:43:45;;;;;;;11.35;7.78;;;;;;;22.80;56.95;101375.50;5093414;28;20024;-49
2023/06/10 07:46:11;;;;;;;13.30;8.95;;;;;;;22.97;57.73;101373.53;5093637;28;20028;-48
2023/06/10 07:48:36;;;;;;;18.30;8.60;;;;;;;22.99;55.83;101384.00;5093650;28;20070;-49
2023/06/10 07:51:01;;;;;;;12.38;7.50;;;;;;;23.15;56.82;101374.16;5093705;28;20043;-48
2023/06/10 07:53:26;;;;;;;14.38;8.27;;;;;;;23.26;56.77;101376.66;5093540;28;20044;-48
2023/06/10 07:55:52;;;;;;;12.80;8.07;;;;;;;23.39;54.98;101372.09;5093882;28;20065;-49
2023/06/10 07:58:17;;;;;;;14.13;7.97;;;;;;;23.55;55.84;101372.69;5092991;28;20077;-48
2023/06/10 08:00:42;;;;;;;12.90;8.02;;;;;;;23.50;51.64;101385.94;5093617;28;20038;-48
2023/06/10 08:03:08;;;;;;;11.98;7.60;;;;;;;23.58;51.76;101378.78;5093597;28;20059;-47
2023/06/10 08:05:33;;;;;;;11.57;8.00;;;;;;;23.62;50.70;101383.09;5092873;28;20042;-50
2023/06/10 08:07:58;;;;;;;12.25;7.05;;;;;;;23.73;51.81;101379.41;5093581;28;20024;-47
2023/06/10 08:10:23;;;;;;;11.52;7.82;;;;;;;23.76;52.40;101376.75;5093355;28;20049;-49
2023/06/10 08:12:49;;;;;;;13.68;8.40;;;;;;;23.87;54.16;101377.41;5093208;28;20061;-48
2023/06/10 08:15:14;;;;;;;13.18;7.10;;;;;;;24.02;52.93;101378.09;5093457;28;20030;-48
2023/06/10 08:17:39;;;;;;;10.57;7.53;;;;;;;24.12;50.46;101379.66;5092929;28;20473;-48
2023/06/10 08:20:06;;;;;;;15.23;7.25;;;;;;;24.22;50.05;101370.69;5092906;28;20552;-48
2023/06/10 08:22:32;;;;;;;;;;;;;;;24.35;51.38;101373.06;5093281;28;20048;-46
2023/06/10 08:24:57;;;;;;;12.17;7.40;;;;;;;24.35;48.86;101373.06;5093615;28;19912;-49
2023/06/10 08:27:22;;;;;;;12.65;7.68;;;;;;;24.42;49.16;101378.19;5092507;28;20361;-50
2023/06/10 08:29:48;;;;;;;10.75;7.45;;;;;;;24.54;51.39;101382.34;5093535;28;20103;-49
2023/06/10 08:32:13;;;;;;;16.75;8.18;;;;;;;24.48;48.51;101379.84;5093330;28;20024;-49
2023/06/10 08:34:39;;;;;;;10.52;6.97;;;;;;;24.62;49.10;101385.72;5092459;28;20392;-48
2023/06/10 08:37:04;;;;;;;13.20;8.00;;;;;;;24.64;47.89;101378.66;5093344;28;20467;-49
2023/06/10 08:39:32;;;;;;;10.68;7.40;;;;;;;24.71;46.66;101375.88;5092563;28;20035;-47
2023/06/10 08:42:13;;;;;;;11.43;7.00;;;;;;;24.91;49.22;101392.16;5092984;28;20016;-47
2023/06/10 08:44:39;;;;;;;12.05;8.13;;;;;;;24.98;48.19;101388.50;5092638;28;20124;-45
2023/06/10 08:47:14;;;;;;;15.20;8.00;;;;;;;25.17;48.36;101392.47;5092821;28;20023;-49
2023/06/10 08:49:44;;;;;;;14.40;7.53;;;;;;;25.18;48.41;101386.28;5092759;28;20035;-50
2023/06/10 08:52:14;;;;;;;11.70;6.93;;;;;;;25.32;48.27;101386.84;5073017;28;20028;-49
2023/06/10 08:54:43;;;;;;;13.52;7.20;;;;;;;25.46;47.99;101389.16;5071780;28;20468;-49
2023/06/10 08:57:08;;;;;;;13.15;7.30;;;;;;;25.58;45.94;101383.59;5072479;28;20031;-50
2023/06/10 08:59:34;;;;;;;11.30;6.53;;;;;;;25.82;45.99;101388.31;5072315;28;20024;-49
2023/06/10 09:02:02;;;;;;;13.00;6.50;;;;;;;25.91;44.60;101385.44;5072153;28;20027;-49
2023/06/10 09:04:27;;;;;;;10.73;6.30;;;;;;;26.13;44.27;101386.63;5072449;28;20074;-48
2023/06/10 09:06:53;;;;;;;16.25;7.07;;;;;;;26.25;44.67;101379.28;5072614;28;20029;-49
2023/06/10 09:09:22;;;;;;;9.85;6.53;;;;;;;26.38;42.24;101382.47;5071614;28;20051;-48
2023/06/10 09:11:47;;;;;;;9.63;6.55;;;;;;;26.39;41.91;101384.16;5072621;28;20376;-50
2023/06/10 09:14:12;;;;;;;11.32;6.00;;;;;;;26.47;42.92;101382.19;5072725;28;20509;-48
2023/06/10 09:16:39;;;;;;;10.60;6.05;;;;;;;26.59;42.67;101381.81;5071736;28;20511;-46
2023/06/10 09:19:07;;;;;;;12.43;6.35;;;;;;;26.76;42.19;101378.72;5072636;28;20035;-48
2023/06/10 09:21:34;;;;;;;16.77;6.30;;;;;;;27.00;43.06;101375.34;5071427;28;20470;-48
2023/06/10 09:24:00;;;;;;;16.67;6.30;;;;;;;27.06;42.52;101367.25;5072192;28;20115;-48
2023/06/10 09:26:32;;;;;;;10.00;5.70;;;;;;;27.17;41.13;101375.72;5072125;28;20100;-47
2023/06/10 09:29:05;;;;;;;15.93;6.50;;;;;;;27.40;41.48;101374.16;5074790;28;20074;-49
2023/06/10 09:31:34;;;;;;;11.07;6.32;;;;;;;27.32;39.09;101381.44;5076164;28;20028;-48
2023/06/10 09:34:14;;;;;;;12.27;6.55;;;;;;;27.51;40.54;101374.66;5076464;28;20025;-49
2023/06/10 09:36:40;;;;;;;11.73;6.72;;;;;;;27.47;38.69;101380.97;5075505;28;20028;-46
2023/06/10 09:39:17;;;;;;;14.77;6.70;;;;;;;27.48;38.73;101380.06;5075848;28;20028;-47
2023/06/10 09:41:43;;;;;;;46.72;11.45;;;;;;;27.59;37.75;101377.91;5076407;28;20090;-49
2023/06/10 09:44:13;;;;;;;10.60;6.38;;;;;;;27.76;38.20;101379.13;5075453;28;20033;-46
2023/06/10 09:46:38;;;;;;;14.07;6.63;;;;;;;27.67;36.80;101371.47;5075838;28;20024;-46
2023/06/10 09:49:03;;;;;;;10.30;5.65;;;;;;;28.02;37.33;101374.72;5076027;28;20027;-49
2023/06/10 09:51:29;;;;;;;11.67;6.10;;;;;;;28.29;36.35;101380.84;5074909;28;20369;-48
2023/06/10 09:53:54;;;;;;;17.10;6.78;;;;;;;28.56;36.50;101376.31;5076211;28;20285;-46
2023/06/10 09:56:20;;;;;;;9.60;6.05;;;;;;;29.19;34.34;101382.75;5075818;28;20016;-48
2023/06/10 09:58:46;;;;;;;8.35;5.75;;;;;;;29.10;35.33;101376.00;5074971;28;20365;-47
2023/06/10 10:01:13;;;;;;;9.20;5.53;;;;;;;29.64;34.40;101373.00;5075904;28;20074;-49
2023/06/10 10:03:46;;;;;;;;;;;;;;;29.52;36.79;101369.91;5075796;28;20518;-48
2023/06/10 10:06:12;;;;;;;14.77;6.03;;;;;;;29.82;34.20;101369.53;5075486;28;19962;-48
2023/06/10 10:08:37;;;;;;;8.48;5.43;;;;;;;29.83;34.12;101373.94;5075589;28;20017;-47
2023/06/10 10:11:03;;;;;;;10.77;5.95;;;;;;;30.02;34.31;101363.41;5075012;28;20363;-49
2023/06/10 10:13:31;;;;;;;8.63;5.95;;;;;;;30.95;31.32;101366.28;5075137;28;20106;-46
2023/06/10 10:16:01;;;;;;;9.82;5.50;;;;;;;31.45;30.61;101357.66;5075544;28;20021;-49
2023/06/10 10:18:30;;;;;;;9.98;6.28;;;;;;;32.05;29.02;101364.38;5074664;28;20066;-47
2023/06/10 10:20:59;;;;;;;14.15;6.70;;;;;;;32.80;28.96;101361.28;5075185;28;20044;-48
2023/06/10 10:23:31;;;;;;;10.65;5.43;;;;;;;33.59;27.17;101367.47;5075217;28;20130;-47
2023/06/10 10:26:01;;;;;;;11.48;5.72;;;;;;;33.60;27.84;101358.50;5074870;28;20414;-46
2023/06/10 10:28:37;;;;;;;9.85;5.30;;;;;;;34.48;25.65;101361.16;5075065;28;20034;-43
2023/06/10 10:31:12;;;;;;;89.68;15.27;;;;;;;34.78;25.28;101361.03;5075318;28;20055;-49
2023/06/10 10:33:54;;;;;;;626.53;83.82;;;;;;;35.33;27.09;101353.00;5074415;28;20020;-48
2023/06/10 10:36:20;;;;;;;66.30;12.18;;;;;;;35.28;24.89;101363.16;5075192;28;20032;-48
2023/06/10 10:38:47;;;;;;;66.13;11.03;;;;;;;35.54;24.21;101358.72;5075331;28;20017;-47
2023/06/10 10:41:13;;;;;;;10.75;5.10;;;;;;;36.15;23.46;101357.28;5074376;28;20432;-48
2023/06/10 10:43:38;;;;;;;13.77;5.93;;;;;;;35.88;24.73;101355.56;5074699;28;20032;-49
2023/06/10 10:46:13;;;;;;;13.67;5.07;;;;;;;37.03;23.14;101359.88;5074539;28;20023;-49
2023/06/10 10:48:41;;;;;;;11.52;5.13;;;;;;;37.34;21.26;101346.84;5074663;28;20025;-49
2023/06/10 10:51:07;;;;;;;8.20;4.85;;;;;;;37.65;21.06;101355.22;5075131;28;20024;-46
2023/06/10 10:53:32;;;;;;;8.85;4.85;;;;;;;37.99;22.73;101351.75;5074173;28;20104;-49
2023/06/10 10:56:00;;;;;;;9.00;5.43;;;;;;;38.24;20.91;101347.09;5074612;28;20107;-49
2023/06/10 10:58:25;;;;;;;11.43;5.30;;;;;;;38.22;21.29;101344.53;5074416;28;20020;-49
2023/06/10 11:00:51;;;;;;;7.63;5.70;;;;;;;38.24;21.36;101347.94;5074340;28;20035;-47
2023/06/10 11:03:17;;;;;;;8.83;4.97;;;;;;;38.22;21.26;101341.84;5074223;28;20643;-49
2023/06/10 11:05:47;;;;;;;9.38;5.40;;;;;;;37.92;20.90;101347.81;5074721;28;20089;-49
2023/06/10 11:08:14;;;;;;;8.95;4.95;;;;;;;37.35;21.26;101342.31;5073904;28;20423;-47
2023/06/10 11:10:52;;;;;;;9.75;5.30;;;;;;;37.73;21.83;101350.09;5074372;28;20024;-50